createdAt,value
2016-10-25T00:00:29.377Z,0
2016-10-25T00:01:29.352Z,0
2016-10-25T00:02:29.292Z,0
2016-10-25T00:03:29.588Z,0
2016-10-25T00:04:29.575Z,0
2016-10-25T00:05:29.562Z,0
2016-10-25T00:06:29.234Z,0
2016-10-25T00:07:29.215Z,0
2016-10-25T00:08:29.552Z,0
2016-10-25T00:09:29.188Z,0
2016-10-25T00:10:29.176Z,0
2016-10-25T00:11:29.484Z,0
2016-10-25T00:12:29.153Z,0
2016-10-25T00:13:29.446Z,0
2016-10-25T00:14:29.746Z,0
2016-10-25T00:15:29.104Z,0
2016-10-25T00:16:29.094Z,0
2016-10-25T00:17:29.083Z,0
2016-10-25T00:18:29.066Z,0
2016-10-25T00:19:29.057Z,0
2016-10-25T00:20:29.654Z,0
2016-10-25T00:21:29.093Z,0
2016-10-25T00:22:28.997Z,0
2016-10-25T00:23:29.028Z,0
2016-10-25T00:24:28.983Z,0
2016-10-25T00:25:28.961Z,0
2016-10-25T00:26:28.979Z,0
2016-10-25T00:27:28.928Z,0
2016-10-25T00:28:28.918Z,0
2016-10-25T00:29:28.901Z,0
2016-10-25T00:30:29.196Z,0
2016-10-25T00:31:28.868Z,0
2016-10-25T00:32:28.910Z,0
2016-10-25T00:33:29.154Z,0
2016-10-25T00:34:28.832Z,0
2016-10-25T00:35:28.814Z,0
2016-10-25T00:36:28.855Z,0
2016-10-25T00:37:29.106Z,0
2016-10-25T00:38:28.779Z,0
2016-10-25T00:39:29.077Z,0
2016-10-25T00:40:29.075Z,0
2016-10-25T00:41:29.041Z,0
2016-10-25T00:42:28.707Z,0
2016-10-25T00:43:29.006Z,0
2016-10-25T00:44:28.684Z,0
2016-10-25T00:45:28.672Z,0
2016-10-25T00:46:28.655Z,0
2016-10-25T00:47:28.641Z,0
2016-10-25T00:48:28.620Z,0
2016-10-25T00:49:29.235Z,0
2016-10-25T00:50:28.906Z,0
2016-10-25T00:51:28.894Z,0
2016-10-25T00:52:28.570Z,0
2016-10-25T00:53:28.549Z,0
2016-10-25T00:54:29.159Z,0
2016-10-25T00:55:28.526Z,0
2016-10-25T00:56:28.707Z,0
2016-10-25T00:57:28.487Z,0
2016-10-25T00:58:28.789Z,0
2016-10-25T00:59:28.780Z,0
2016-10-25T01:00:28.449Z,0
2016-10-25T01:01:28.487Z,0
2016-10-25T01:02:28.423Z,0
2016-10-25T01:03:28.765Z,0
2016-10-25T01:04:28.390Z,0
2016-10-25T01:05:29.000Z,0
2016-10-25T01:06:28.361Z,0
2016-10-25T01:07:28.348Z,0
2016-10-25T01:08:28.648Z,0
2016-10-25T01:09:28.349Z,0
2016-10-25T01:10:28.303Z,0
2016-10-25T01:11:28.599Z,0
2016-10-25T01:12:28.274Z,0
2016-10-25T01:13:28.292Z,0
2016-10-25T01:14:28.240Z,0
2016-10-25T01:15:28.225Z,0
2016-10-25T01:16:28.214Z,0
2016-10-25T01:17:28.200Z,0
2016-10-25T01:18:28.186Z,0
2016-10-25T01:19:28.176Z,0
2016-10-25T01:20:28.153Z,0
2016-10-25T01:21:28.151Z,0
2016-10-25T01:22:28.129Z,0
2016-10-25T01:23:28.126Z,0
2016-10-25T01:24:28.110Z,0
2016-10-25T01:25:28.084Z,0
2016-10-25T01:26:28.061Z,0
2016-10-25T01:27:28.369Z,0
2016-10-25T01:28:28.357Z,0
2016-10-25T01:29:28.330Z,0
2016-10-25T01:30:28.007Z,0
2016-10-25T01:31:28.028Z,0
2016-10-25T01:32:27.984Z,0
2016-10-25T01:33:28.275Z,0
2016-10-25T01:34:28.298Z,0
2016-10-25T01:35:27.955Z,0
2016-10-25T01:36:27.917Z,0
2016-10-25T01:37:27.901Z,0
2016-10-25T01:38:27.899Z,0
2016-10-25T01:39:27.875Z,0
2016-10-25T01:40:28.175Z,0
2016-10-25T01:41:27.856Z,0
2016-10-25T01:42:27.840Z,0
2016-10-25T01:43:28.128Z,0
2016-10-25T01:44:27.808Z,0
2016-10-25T01:45:27.795Z,0
2016-10-25T01:46:27.779Z,0
2016-10-25T01:47:27.767Z,0
2016-10-25T01:48:27.757Z,0
2016-10-25T01:49:27.730Z,0
2016-10-25T01:50:27.921Z,0
2016-10-25T01:51:27.710Z,0
2016-10-25T01:52:27.691Z,0
2016-10-25T01:53:27.675Z,0
2016-10-25T01:54:27.977Z,0
2016-10-25T01:55:27.697Z,0
2016-10-25T01:56:27.627Z,0
2016-10-25T01:57:27.612Z,0
2016-10-25T01:58:27.599Z,0
2016-10-25T01:59:27.586Z,0
2016-10-25T02:00:27.888Z,0
2016-10-25T02:01:27.557Z,0
2016-10-25T02:02:27.859Z,0
2016-10-25T02:03:27.847Z,0
2016-10-25T02:04:27.824Z,0
2016-10-25T02:05:27.499Z,0
2016-10-25T02:06:27.520Z,0
2016-10-25T02:07:27.468Z,0
2016-10-25T02:08:27.548Z,0
2016-10-25T02:09:27.448Z,0
2016-10-25T02:10:27.745Z,0
2016-10-25T02:11:27.415Z,0
2016-10-25T02:12:27.704Z,0
2016-10-25T02:13:27.378Z,0
2016-10-25T02:14:27.678Z,0
2016-10-25T02:15:27.349Z,0
2016-10-25T02:16:27.332Z,0
2016-10-25T02:17:27.643Z,0
2016-10-25T02:18:27.632Z,0
2016-10-25T02:19:27.296Z,0
2016-10-25T02:20:27.297Z,0
2016-10-25T02:21:27.261Z,0
2016-10-25T02:22:27.253Z,0
2016-10-25T02:23:27.855Z,0
2016-10-25T02:24:27.219Z,0
2016-10-25T02:25:27.212Z,0
2016-10-25T02:26:27.502Z,0
2016-10-25T02:27:27.174Z,0
2016-10-25T02:28:27.202Z,0
2016-10-25T02:29:27.201Z,0
2016-10-25T02:30:27.127Z,0
2016-10-25T02:31:27.128Z,0
2016-10-25T02:32:27.105Z,0
2016-10-25T02:33:27.399Z,0
2016-10-25T02:34:27.393Z,0
2016-10-25T02:35:27.061Z,0
2016-10-25T02:36:27.095Z,0
2016-10-25T02:37:27.040Z,0
2016-10-25T02:38:27.017Z,0
2016-10-25T02:39:27.003Z,0
2016-10-25T02:40:27.025Z,0
2016-10-25T02:41:26.969Z,0
2016-10-25T02:42:26.955Z,0
2016-10-25T02:43:26.944Z,0
2016-10-25T02:44:27.274Z,0
2016-10-25T02:45:27.229Z,0
2016-10-25T02:46:26.909Z,0
2016-10-25T02:47:26.970Z,0
2016-10-25T02:48:26.875Z,0
2016-10-25T02:49:26.863Z,0
2016-10-25T02:50:26.855Z,0
2016-10-25T02:51:26.822Z,0
2016-10-25T02:52:27.120Z,0
2016-10-25T02:53:26.799Z,0
2016-10-25T02:54:26.788Z,0
2016-10-25T02:55:26.798Z,0
2016-10-25T02:56:26.757Z,0
2016-10-25T02:57:26.740Z,0
2016-10-25T02:58:26.761Z,0
2016-10-25T02:59:26.707Z,0
2016-10-25T03:00:26.729Z,0
2016-10-25T03:01:26.993Z,0
2016-10-25T03:02:26.667Z,0
2016-10-25T03:03:26.643Z,0
2016-10-25T03:04:26.638Z,0
2016-10-25T03:05:26.939Z,0
2016-10-25T03:06:26.606Z,0
2016-10-25T03:07:26.635Z,0
2016-10-25T03:08:26.601Z,0
2016-10-25T03:09:26.650Z,0
2016-10-25T03:10:26.878Z,0
2016-10-25T03:11:26.849Z,0
2016-10-25T03:12:26.535Z,0
2016-10-25T03:13:26.505Z,0
2016-10-25T03:14:26.499Z,0
2016-10-25T03:15:26.817Z,0
2016-10-25T03:16:26.778Z,0
2016-10-25T03:17:26.451Z,0
2016-10-25T03:18:26.429Z,0
2016-10-25T03:19:26.418Z,0
2016-10-25T03:20:26.718Z,0
2016-10-25T03:21:26.383Z,0
2016-10-25T03:22:26.382Z,0
2016-10-25T03:23:26.367Z,0
2016-10-25T03:24:26.345Z,0
2016-10-25T03:25:26.335Z,0
2016-10-25T03:26:26.632Z,0
2016-10-25T03:27:26.617Z,0
2016-10-25T03:28:26.324Z,0
2016-10-25T03:29:26.286Z,0
2016-10-25T03:30:26.263Z,0
2016-10-25T03:31:26.560Z,0
2016-10-25T03:32:26.235Z,0
2016-10-25T03:33:26.215Z,0
2016-10-25T03:34:26.531Z,0
2016-10-25T03:35:26.506Z,0
2016-10-25T03:36:26.173Z,0
2016-10-25T03:37:26.153Z,0
2016-10-25T03:38:26.457Z,0
2016-10-25T03:39:26.131Z,0
2016-10-25T03:40:26.115Z,0
2016-10-25T03:41:26.101Z,0
2016-10-25T03:42:26.085Z,0
2016-10-25T03:43:26.071Z,0
2016-10-25T03:44:26.056Z,0
2016-10-25T03:45:26.355Z,0
2016-10-25T03:46:26.025Z,0
2016-10-25T03:47:26.327Z,0
2016-10-25T03:48:26.308Z,0
2016-10-25T03:49:25.985Z,0
2016-10-25T03:50:26.168Z,0
2016-10-25T03:51:25.950Z,0
2016-10-25T03:52:26.253Z,0
2016-10-25T03:53:25.927Z,0
2016-10-25T03:54:25.910Z,0
2016-10-25T03:55:25.896Z,0
2016-10-25T03:56:25.887Z,0
2016-10-25T03:57:25.867Z,0
2016-10-25T03:58:25.847Z,0
2016-10-25T03:59:25.834Z,0
2016-10-25T04:00:25.828Z,0
2016-10-25T04:01:25.810Z,0
2016-10-25T04:02:26.105Z,0
2016-10-25T04:03:25.775Z,0
2016-10-25T04:04:25.767Z,0
2016-10-25T04:05:25.755Z,0
2016-10-25T04:06:25.731Z,0
2016-10-25T04:07:26.060Z,0
2016-10-25T04:08:25.715Z,0
2016-10-25T04:09:25.697Z,0
2016-10-25T04:10:25.678Z,0
2016-10-25T04:11:25.665Z,0
2016-10-25T04:12:25.649Z,0
2016-10-25T04:13:25.949Z,0
2016-10-25T04:14:25.619Z,0
2016-10-25T04:15:25.605Z,0
2016-10-25T04:16:25.641Z,0
2016-10-25T04:17:25.895Z,0
2016-10-25T04:18:25.872Z,0
2016-10-25T04:19:25.545Z,0
2016-10-25T04:20:25.543Z,0
2016-10-25T04:21:25.513Z,0
2016-10-25T04:22:25.506Z,0
2016-10-25T04:23:25.488Z,0
2016-10-25T04:24:25.781Z,0
2016-10-25T04:25:25.458Z,0
2016-10-25T04:26:25.441Z,0
2016-10-25T04:27:26.061Z,0
2016-10-25T04:28:25.732Z,0
2016-10-25T04:29:25.397Z,0
2016-10-25T04:30:25.702Z,0
2016-10-25T04:31:25.684Z,0
2016-10-25T04:32:25.354Z,0
2016-10-25T04:33:25.349Z,0
2016-10-25T04:34:25.331Z,0
2016-10-25T04:35:25.632Z,0
2016-10-25T04:36:25.304Z,0
2016-10-25T04:37:25.297Z,0
2016-10-25T04:38:25.899Z,0
2016-10-25T04:39:25.289Z,0
2016-10-25T04:40:25.238Z,0
2016-10-25T04:41:25.540Z,0
2016-10-25T04:42:25.243Z,0
2016-10-25T04:43:25.207Z,0
2016-10-25T04:44:25.189Z,0
2016-10-25T04:45:25.169Z,0
2016-10-25T04:46:25.153Z,0
2016-10-25T04:47:25.448Z,0
2016-10-25T04:48:25.122Z,0
2016-10-25T04:49:25.125Z,0
2016-10-25T04:50:25.097Z,0
2016-10-25T04:51:25.077Z,0
2016-10-25T04:52:25.387Z,0
2016-10-25T04:53:25.048Z,0
2016-10-25T04:54:25.375Z,0
2016-10-25T04:55:25.357Z,0
2016-10-25T04:56:25.329Z,0
2016-10-25T04:57:25.310Z,0
2016-10-25T04:58:25.324Z,0
2016-10-25T04:59:24.956Z,0
2016-10-25T05:00:25.258Z,0
2016-10-25T05:01:24.927Z,0
2016-10-25T05:02:24.917Z,0
2016-10-25T05:03:25.211Z,0
2016-10-25T05:04:24.940Z,0
2016-10-25T05:05:24.930Z,0
2016-10-25T05:06:24.872Z,0
2016-10-25T05:07:25.481Z,0
2016-10-25T05:08:25.140Z,0
2016-10-25T05:09:24.813Z,0
2016-10-25T05:10:24.808Z,0
2016-10-25T05:11:24.794Z,0
2016-10-25T05:12:24.771Z,0
2016-10-25T05:13:25.061Z,0
2016-10-25T05:14:25.371Z,0
2016-10-25T05:15:24.727Z,0
2016-10-25T05:16:24.735Z,0
2016-10-25T05:17:25.033Z,0
2016-10-25T05:18:24.997Z,0
2016-10-25T05:19:24.661Z,0
2016-10-25T05:20:24.651Z,0
2016-10-25T05:21:24.642Z,0
2016-10-25T05:22:24.934Z,0
2016-10-25T05:23:24.600Z,0
2016-10-25T05:24:24.634Z,0
2016-10-25T05:25:24.893Z,0
2016-10-25T05:26:24.574Z,0
2016-10-25T05:27:24.857Z,0
2016-10-25T05:28:24.532Z,0
2016-10-25T05:29:24.513Z,0
2016-10-25T05:30:24.496Z,0
2016-10-25T05:31:24.480Z,0
2016-10-25T05:32:24.469Z,0
2016-10-25T05:33:24.449Z,0
2016-10-25T05:34:24.757Z,0
2016-10-25T05:35:24.426Z,0
2016-10-25T05:36:24.405Z,0
2016-10-25T05:37:24.436Z,0
2016-10-25T05:38:24.416Z,0
2016-10-25T05:39:24.371Z,0
2016-10-25T05:40:24.353Z,0
2016-10-25T05:41:24.342Z,0
2016-10-25T05:42:24.955Z,0
2016-10-25T05:43:24.301Z,0
2016-10-25T05:44:24.295Z,0
2016-10-25T05:45:24.280Z,0
2016-10-25T05:46:24.297Z,0
2016-10-25T05:47:24.882Z,0
2016-10-25T05:48:25.310Z,0
2016-10-25T05:49:24.533Z,0
2016-10-25T05:50:24.720Z,0
2016-10-25T05:51:24.199Z,0
2016-10-25T05:52:24.176Z,0
2016-10-25T05:53:24.482Z,4
2016-10-25T05:54:24.136Z,4
2016-10-25T05:55:24.441Z,0
2016-10-25T05:56:24.116Z,4
2016-10-25T05:57:24.561Z,4
2016-10-25T05:58:24.079Z,4
2016-10-25T05:59:24.066Z,4
2016-10-25T06:00:24.096Z,4
2016-10-25T06:01:24.358Z,8
2016-10-25T06:02:24.024Z,8
2016-10-25T06:03:24.010Z,8
2016-10-25T06:04:24.619Z,8
2016-10-25T06:05:23.976Z,12
2016-10-25T06:06:24.278Z,12
2016-10-25T06:07:23.957Z,12
2016-10-25T06:08:23.932Z,8
2016-10-25T06:09:23.921Z,16
2016-10-25T06:10:23.931Z,20
2016-10-25T06:11:23.887Z,24
2016-10-25T06:12:23.876Z,16
2016-10-25T06:13:23.860Z,24
2016-10-25T06:14:23.847Z,28
2016-10-25T06:15:24.211Z,36
2016-10-25T06:16:24.140Z,44
2016-10-25T06:17:23.800Z,48
2016-10-25T06:18:23.784Z,52
2016-10-25T06:19:23.768Z,56
2016-10-25T06:20:23.757Z,64
2016-10-25T06:21:23.743Z,60
2016-10-25T06:22:24.459Z,60
2016-10-25T06:23:24.016Z,60
2016-10-25T06:24:23.700Z,64
2016-10-25T06:25:23.988Z,64
2016-10-25T06:26:23.663Z,68
2016-10-25T06:27:23.650Z,68
2016-10-25T06:28:23.642Z,72
2016-10-25T06:29:23.655Z,72
2016-10-25T06:30:23.609Z,76
2016-10-25T06:31:23.592Z,84
2016-10-25T06:32:23.579Z,92
2016-10-25T06:33:23.868Z,104
2016-10-25T06:34:23.546Z,120
2016-10-25T06:35:23.843Z,128
2016-10-25T06:36:23.829Z,140
2016-10-25T06:37:23.496Z,148
2016-10-25T06:38:23.484Z,152
2016-10-25T06:39:23.473Z,172
2016-10-25T06:40:23.456Z,172
2016-10-25T06:41:23.761Z,148
2016-10-25T06:42:23.743Z,132
2016-10-25T06:43:23.409Z,128
2016-10-25T06:44:23.770Z,116
2016-10-25T06:45:23.380Z,124
2016-10-25T06:46:23.677Z,136
2016-10-25T06:47:23.358Z,140
2016-10-25T06:48:23.656Z,140
2016-10-25T06:49:23.638Z,148
2016-10-25T06:50:23.624Z,164
2016-10-25T06:51:23.604Z,176
2016-10-25T06:52:23.593Z,188
2016-10-25T06:53:23.257Z,200
2016-10-25T06:54:23.254Z,212
2016-10-25T06:55:23.236Z,188
2016-10-25T06:56:23.218Z,184
2016-10-25T06:57:23.199Z,180
2016-10-25T06:58:23.194Z,188
2016-10-25T06:59:23.176Z,192
2016-10-25T07:00:23.155Z,196
2016-10-25T07:01:23.768Z,188
2016-10-25T07:02:23.448Z,208
2016-10-25T07:03:23.114Z,216
2016-10-25T07:04:23.094Z,208
2016-10-25T07:05:23.087Z,208
2016-10-25T07:06:23.078Z,216
2016-10-25T07:07:23.365Z,216
2016-10-25T07:08:23.034Z,208
2016-10-25T07:09:23.025Z,220
2016-10-25T07:10:23.321Z,228
2016-10-25T07:11:22.990Z,252
2016-10-25T07:12:22.978Z,260
2016-10-25T07:13:22.963Z,264
2016-10-25T07:14:22.959Z,284
2016-10-25T07:15:22.937Z,284
2016-10-25T07:16:22.919Z,280
2016-10-25T07:17:22.915Z,264
2016-10-25T07:18:23.209Z,304
2016-10-25T07:19:22.885Z,380
2016-10-25T07:20:22.865Z,408
2016-10-25T07:21:22.845Z,356
2016-10-25T07:22:22.845Z,360
2016-10-25T07:23:22.816Z,308
2016-10-25T07:24:22.799Z,376
2016-10-25T07:25:22.794Z,488
2016-10-25T07:26:23.093Z,556
2016-10-25T07:27:22.752Z,528
2016-10-25T07:28:22.749Z,444
2016-10-25T07:29:22.727Z,416
2016-10-25T07:30:22.712Z,428
2016-10-25T07:31:22.698Z,356
2016-10-25T07:32:22.688Z,400
2016-10-25T07:33:22.677Z,472
2016-10-25T07:34:22.687Z,452
2016-10-25T07:35:22.641Z,384
2016-10-25T07:36:22.621Z,396
2016-10-25T07:37:22.608Z,408
2016-10-25T07:38:22.913Z,424
2016-10-25T07:39:22.896Z,448
2016-10-25T07:40:22.639Z,444
2016-10-25T07:41:22.886Z,500
2016-10-25T07:42:22.541Z,528
2016-10-25T07:43:22.837Z,516
2016-10-25T07:44:22.503Z,492
2016-10-25T07:45:22.488Z,448
2016-10-25T07:46:22.783Z,448
2016-10-25T07:47:22.456Z,492
2016-10-25T07:48:22.765Z,508
2016-10-25T07:49:23.055Z,508
2016-10-25T07:50:22.410Z,552
2016-10-25T07:51:22.908Z,520
2016-10-25T07:52:23.010Z,540
2016-10-25T07:53:22.680Z,532
2016-10-25T07:54:22.367Z,492
2016-10-25T07:55:22.338Z,464
2016-10-25T07:56:22.634Z,488
2016-10-25T07:57:22.305Z,468
2016-10-25T07:58:22.922Z,484
2016-10-25T07:59:22.588Z,540
2016-10-25T08:00:22.581Z,600
2016-10-25T08:01:22.254Z,516
2016-10-25T08:02:22.268Z,508
2016-10-25T08:03:22.226Z,436
2016-10-25T08:04:22.234Z,412
2016-10-25T08:05:22.504Z,364
2016-10-25T08:06:22.503Z,360
2016-10-25T08:07:22.162Z,360
2016-10-25T08:08:22.148Z,488
2016-10-25T08:09:22.132Z,572
2016-10-25T08:10:22.139Z,664
2016-10-25T08:11:22.101Z,644
2016-10-25T08:12:22.088Z,632
2016-10-25T08:13:22.069Z,592
2016-10-25T08:14:22.060Z,412
2016-10-25T08:15:22.049Z,384
2016-10-25T08:16:22.032Z,396
2016-10-25T08:17:22.324Z,476
2016-10-25T08:18:22.313Z,504
2016-10-25T08:19:21.983Z,500
2016-10-25T08:20:22.164Z,608
2016-10-25T08:21:21.989Z,652
2016-10-25T08:22:21.943Z,748
2016-10-25T08:23:21.926Z,624
2016-10-25T08:24:21.907Z,804
2016-10-25T08:25:22.204Z,852
2016-10-25T08:26:21.889Z,1008
2016-10-25T08:27:22.174Z,984
2016-10-25T08:28:21.885Z,936
2016-10-25T08:29:22.142Z,992
2016-10-25T08:30:22.458Z,1052
2016-10-25T08:31:21.801Z,888
2016-10-25T08:32:21.788Z,836
2016-10-25T08:33:21.771Z,1048
2016-10-25T08:34:21.756Z,1068
2016-10-25T08:35:21.742Z,1032
2016-10-25T08:36:21.726Z,1176
2016-10-25T08:37:21.721Z,1148
2016-10-25T08:38:21.697Z,1140
2016-10-25T08:39:22.005Z,1040
2016-10-25T08:40:21.976Z,936
2016-10-25T08:41:21.652Z,1144
2016-10-25T08:42:21.943Z,1196
2016-10-25T08:43:21.650Z,1184
2016-10-25T08:44:21.616Z,1276
2016-10-25T08:45:21.911Z,1084
2016-10-25T08:46:21.576Z,1064
2016-10-25T08:47:21.873Z,1344
2016-10-25T08:48:21.868Z,1488
2016-10-25T08:49:21.891Z,1536
2016-10-25T08:50:21.833Z,1528
2016-10-25T08:51:21.500Z,1684
2016-10-25T08:52:21.483Z,1580
2016-10-25T08:53:21.475Z,1436
2016-10-25T08:54:21.764Z,1288
2016-10-25T08:55:21.441Z,1224
2016-10-25T08:56:21.426Z,1168
2016-10-25T08:57:21.414Z,1304
2016-10-25T08:58:22.046Z,1408
2016-10-25T08:59:21.387Z,1672
2016-10-25T09:00:21.684Z,1832
2016-10-25T09:01:21.358Z,1640
2016-10-25T09:02:21.331Z,1592
2016-10-25T09:03:21.628Z,1828
2016-10-25T09:04:21.308Z,2040
2016-10-25T09:05:21.290Z,2976
2016-10-25T09:06:21.628Z,3000
2016-10-25T09:07:21.595Z,2548
2016-10-25T09:08:21.251Z,2264
2016-10-25T09:09:21.556Z,2284
2016-10-25T09:10:21.217Z,2232
2016-10-25T09:11:21.200Z,2272
2016-10-25T09:12:21.195Z,2196
2016-10-25T09:13:21.799Z,2480
2016-10-25T09:14:21.779Z,2464
2016-10-25T09:15:21.141Z,2448
2016-10-25T09:16:21.127Z,2428
2016-10-25T09:17:21.422Z,2228
2016-10-25T09:18:21.099Z,2264
2016-10-25T09:19:21.089Z,2140
2016-10-25T09:20:21.066Z,1872
2016-10-25T09:21:21.369Z,1928
2016-10-25T09:22:21.038Z,1800
2016-10-25T09:23:21.024Z,1740
2016-10-25T09:24:21.012Z,1688
2016-10-25T09:25:21.315Z,1628
2016-10-25T09:26:20.980Z,1660
2016-10-25T09:27:21.281Z,1824
2016-10-25T09:28:20.981Z,2296
2016-10-25T09:29:20.938Z,2684
2016-10-25T09:30:20.925Z,3068
2016-10-25T09:31:20.909Z,3216
2016-10-25T09:32:20.897Z,3008
2016-10-25T09:33:20.875Z,3344
2016-10-25T09:34:20.869Z,3612
2016-10-25T09:35:20.847Z,3684
2016-10-25T09:36:20.841Z,2828
2016-10-25T09:37:20.819Z,3028
2016-10-25T09:38:20.801Z,3096
2016-10-25T09:39:20.788Z,2988
2016-10-25T09:40:20.776Z,2640
2016-10-25T09:41:20.770Z,2748
2016-10-25T09:42:20.746Z,3336
2016-10-25T09:43:21.050Z,3316
2016-10-25T09:44:21.044Z,3220
2016-10-25T09:45:20.710Z,3264
2016-10-25T09:46:20.692Z,3408
2016-10-25T09:47:20.991Z,2932
2016-10-25T09:48:20.982Z,2640
2016-10-25T09:49:20.648Z,2800
2016-10-25T09:50:20.637Z,2544
2016-10-25T09:51:21.137Z,3104
2016-10-25T09:52:20.919Z,3116
2016-10-25T09:53:20.622Z,3180
2016-10-25T09:54:20.583Z,3172
2016-10-25T09:55:20.562Z,3240
2016-10-25T09:56:20.865Z,3696
2016-10-25T09:57:20.852Z,3032
2016-10-25T09:58:20.525Z,3252
2016-10-25T09:59:20.508Z,3268
2016-10-25T10:00:20.502Z,3064
2016-10-25T10:01:20.797Z,2816
2016-10-25T10:02:20.468Z,3008
2016-10-25T10:03:20.450Z,3100
2016-10-25T10:04:20.438Z,3320
2016-10-25T10:05:20.429Z,3612
2016-10-25T10:06:20.417Z,3548
2016-10-25T10:07:20.712Z,4320
2016-10-25T10:08:20.385Z,4560
2016-10-25T10:09:20.369Z,4220
2016-10-25T10:10:20.362Z,3588
2016-10-25T10:11:20.351Z,3212
2016-10-25T10:12:20.332Z,3112
2016-10-25T10:13:20.633Z,3036
2016-10-25T10:14:20.300Z,2896
2016-10-25T10:15:20.295Z,2392
2016-10-25T10:16:20.281Z,2524
2016-10-25T10:17:20.261Z,2472
2016-10-25T10:18:20.279Z,2512
2016-10-25T10:19:20.855Z,2424
2016-10-25T10:20:20.252Z,2516
2016-10-25T10:21:20.205Z,2412
2016-10-25T10:22:20.195Z,2172
2016-10-25T10:23:20.176Z,1656
2016-10-25T10:24:20.164Z,1728
2016-10-25T10:25:20.466Z,2028
2016-10-25T10:26:20.134Z,1872
2016-10-25T10:27:20.445Z,1764
2016-10-25T10:28:20.108Z,1632
2016-10-25T10:29:20.093Z,2120
2016-10-25T10:30:20.391Z,2400
2016-10-25T10:31:20.383Z,1832
2016-10-25T10:32:20.048Z,1728
2016-10-25T10:33:21.037Z,2180
2016-10-25T10:34:20.384Z,2552
2016-10-25T10:35:20.029Z,2744
2016-10-25T10:36:19.999Z,2908
2016-10-25T10:37:19.982Z,2960
2016-10-25T10:38:19.970Z,2904
2016-10-25T10:39:19.956Z,2800
2016-10-25T10:40:19.947Z,2780
2016-10-25T10:41:19.936Z,2696
2016-10-25T10:42:19.929Z,2488
2016-10-25T10:43:19.907Z,2684
2016-10-25T10:44:19.895Z,2848
2016-10-25T10:45:19.920Z,2856
2016-10-25T10:46:19.895Z,2724
2016-10-25T10:47:20.158Z,2580
2016-10-25T10:48:19.855Z,2452
2016-10-25T10:49:19.835Z,2344
2016-10-25T10:50:19.799Z,2212
2016-10-25T10:51:19.783Z,2452
2016-10-25T10:52:19.779Z,2460
2016-10-25T10:53:19.765Z,2472
2016-10-25T10:54:19.744Z,2452
2016-10-25T10:55:19.727Z,2496
2016-10-25T10:56:19.714Z,2500
2016-10-25T10:57:19.707Z,2556
2016-10-25T10:58:19.704Z,2640
2016-10-25T10:59:19.984Z,2672
2016-10-25T11:00:19.664Z,2732
2016-10-25T11:01:19.960Z,2840
2016-10-25T11:02:19.632Z,3044
2016-10-25T11:03:19.926Z,3004
2016-10-25T11:04:19.610Z,2792
2016-10-25T11:05:19.943Z,2780
2016-10-25T11:06:19.582Z,2872
2016-10-25T11:07:19.875Z,3088
2016-10-25T11:08:19.552Z,3076
2016-10-25T11:09:19.844Z,2944
2016-10-25T11:10:19.831Z,2652
2016-10-25T11:11:19.974Z,2436
2016-10-25T11:12:19.828Z,2724
2016-10-25T11:13:19.490Z,2788
2016-10-25T11:14:19.465Z,2572
2016-10-25T11:15:19.771Z,2780
2016-10-25T11:16:19.779Z,3116
2016-10-25T11:17:19.744Z,3012
2016-10-25T11:18:19.416Z,3020
2016-10-25T11:19:19.401Z,3248
2016-10-25T11:20:19.407Z,3464
2016-10-25T11:21:19.685Z,3236
2016-10-25T11:22:19.361Z,2944
2016-10-25T11:23:19.659Z,2876
2016-10-25T11:24:19.331Z,2816
2016-10-25T11:25:19.318Z,2684
2016-10-25T11:26:19.630Z,2640
2016-10-25T11:27:19.298Z,2712
2016-10-25T11:28:19.586Z,2652
2016-10-25T11:29:19.259Z,2536
2016-10-25T11:30:19.247Z,2360
2016-10-25T11:31:19.234Z,2244
2016-10-25T11:32:19.252Z,2292
2016-10-25T11:33:19.201Z,2488
2016-10-25T11:34:19.202Z,2576
2016-10-25T11:35:19.186Z,2804
2016-10-25T11:36:19.503Z,3016
2016-10-25T11:37:19.464Z,3172
2016-10-25T11:38:19.443Z,3420
2016-10-25T11:39:19.118Z,3072
2016-10-25T11:40:19.427Z,2640
2016-10-25T11:41:19.413Z,2420
2016-10-25T11:42:19.078Z,2300
2016-10-25T11:43:19.063Z,2176
2016-10-25T11:44:19.052Z,1992
2016-10-25T11:45:19.041Z,1824
2016-10-25T11:46:19.027Z,1764
2016-10-25T11:47:19.021Z,1764
2016-10-25T11:48:19.013Z,1840
2016-10-25T11:49:19.295Z,1832
2016-10-25T11:50:18.976Z,1824
2016-10-25T11:51:19.158Z,1836
2016-10-25T11:52:18.944Z,1848
2016-10-25T11:53:19.561Z,1732
2016-10-25T11:54:19.224Z,1656
2016-10-25T11:55:18.906Z,1708
2016-10-25T11:56:18.889Z,1764
2016-10-25T11:57:18.871Z,1764
2016-10-25T11:58:18.869Z,1740
2016-10-25T11:59:19.668Z,1668
2016-10-25T12:00:19.155Z,1680
2016-10-25T12:01:19.140Z,1716
2016-10-25T12:02:18.801Z,1752
2016-10-25T12:03:18.824Z,1864
2016-10-25T12:04:18.811Z,1956
2016-10-25T12:05:19.084Z,1988
2016-10-25T12:06:18.764Z,2120
2016-10-25T12:07:18.750Z,2176
2016-10-25T12:08:18.726Z,2252
2016-10-25T12:09:19.045Z,2268
2016-10-25T12:10:19.010Z,2092
2016-10-25T12:11:19.308Z,2060
2016-10-25T12:12:18.661Z,1968
2016-10-25T12:13:18.966Z,1848
2016-10-25T12:14:18.955Z,1916
2016-10-25T12:15:18.629Z,1828
2016-10-25T12:16:18.614Z,1824
2016-10-25T12:17:18.597Z,1868
2016-10-25T12:18:18.797Z,1860
2016-10-25T12:19:18.931Z,1872
2016-10-25T12:20:19.182Z,1972
2016-10-25T12:21:18.544Z,2000
2016-10-25T12:22:18.524Z,1960
2016-10-25T12:23:18.828Z,1868
2016-10-25T12:24:18.504Z,1748
2016-10-25T12:25:18.499Z,1804
2016-10-25T12:26:18.473Z,1896
2016-10-25T12:27:18.770Z,1904
2016-10-25T12:28:18.443Z,1848
2016-10-25T12:29:18.431Z,1780
2016-10-25T12:30:18.415Z,1920
2016-10-25T12:31:18.405Z,1884
2016-10-25T12:32:18.706Z,2028
2016-10-25T12:33:18.372Z,2232
2016-10-25T12:34:18.683Z,2220
2016-10-25T12:35:18.346Z,2048
2016-10-25T12:36:18.330Z,1924
2016-10-25T12:37:18.320Z,1932
2016-10-25T12:38:18.305Z,1868
2016-10-25T12:39:18.292Z,1924
2016-10-25T12:40:18.277Z,2052
2016-10-25T12:41:18.300Z,1992
2016-10-25T12:42:18.249Z,2044
2016-10-25T12:43:18.245Z,1960
2016-10-25T12:44:18.219Z,1792
2016-10-25T12:45:18.210Z,1712
2016-10-25T12:46:18.196Z,1556
2016-10-25T12:47:18.182Z,1476
2016-10-25T12:48:18.484Z,1448
2016-10-25T12:49:18.164Z,1376
2016-10-25T12:50:18.453Z,1412
2016-10-25T12:51:18.471Z,1388
2016-10-25T12:52:18.141Z,1324
2016-10-25T12:53:18.122Z,1244
2016-10-25T12:54:18.085Z,1376
2016-10-25T12:55:18.074Z,1456
2016-10-25T12:56:18.091Z,1544
2016-10-25T12:57:18.045Z,1624
2016-10-25T12:58:18.348Z,1624
2016-10-25T12:59:19.017Z,1640
2016-10-25T13:00:18.012Z,1652
2016-10-25T13:01:17.993Z,1680
2016-10-25T13:02:17.969Z,1776
2016-10-25T13:03:17.958Z,1888
2016-10-25T13:04:18.266Z,1964
2016-10-25T13:05:18.249Z,1992
2016-10-25T13:06:17.910Z,1992
2016-10-25T13:07:18.531Z,1964
2016-10-25T13:08:17.892Z,1952
2016-10-25T13:09:17.904Z,1940
2016-10-25T13:10:17.867Z,1884
2016-10-25T13:11:17.851Z,1808
2016-10-25T13:12:17.839Z,1676
2016-10-25T13:13:17.824Z,1440
2016-10-25T13:14:17.840Z,1408
2016-10-25T13:15:17.802Z,1576
2016-10-25T13:16:18.409Z,1584
2016-10-25T13:17:18.078Z,1580
2016-10-25T13:18:17.774Z,1540
2016-10-25T13:19:17.736Z,1480
2016-10-25T13:20:18.356Z,1436
2016-10-25T13:21:17.711Z,1420
2016-10-25T13:22:17.717Z,1424
2016-10-25T13:23:17.677Z,1420
2016-10-25T13:24:17.671Z,1404
2016-10-25T13:25:17.654Z,1400
2016-10-25T13:26:17.640Z,1360
2016-10-25T13:27:17.659Z,1324
2016-10-25T13:28:17.612Z,1320
2016-10-25T13:29:17.605Z,1348
2016-10-25T13:30:17.610Z,1328
2016-10-25T13:31:17.578Z,1264
2016-10-25T13:32:17.565Z,1196
2016-10-25T13:33:17.554Z,1108
2016-10-25T13:34:17.847Z,1056
2016-10-25T13:35:17.517Z,972
2016-10-25T13:36:17.826Z,876
2016-10-25T13:37:17.493Z,840
2016-10-25T13:38:17.480Z,800
2016-10-25T13:39:17.507Z,808
2016-10-25T13:40:17.441Z,856
2016-10-25T13:41:18.083Z,888
2016-10-25T13:42:17.416Z,860
2016-10-25T13:43:17.405Z,840
2016-10-25T13:44:17.393Z,824
2016-10-25T13:45:17.688Z,844
2016-10-25T13:46:17.675Z,840
2016-10-25T13:47:17.342Z,824
2016-10-25T13:48:17.640Z,812
2016-10-25T13:49:17.327Z,752
2016-10-25T13:50:17.337Z,736
2016-10-25T13:51:17.535Z,804
2016-10-25T13:52:17.597Z,884
2016-10-25T13:53:17.300Z,916
2016-10-25T13:54:17.264Z,936
2016-10-25T13:55:17.265Z,976
2016-10-25T13:56:17.232Z,1008
2016-10-25T13:57:17.524Z,1036
2016-10-25T13:58:17.210Z,1076
2016-10-25T13:59:17.180Z,1108
2016-10-25T14:00:17.177Z,1140
2016-10-25T14:01:17.151Z,1176